sensor_id;sensor_type;location;lat;lon;timestamp;pressure;altitude;pressure_sealevel;temperature;humidity
69171;BME280;56279;47.902;12.308;2023-05-03T00:01:07;96060.13;;;9.00;99.56
69171;BME280;56279;47.902;12.308;2023-05-03T00:03:08;96057.28;;;9.07;99.84
69171;BME280;56279;47.902;12.308;2023-05-03T00:05:10;96053.84;;;9.07;99.66
69171;BME280;56279;47.902;12.308;2023-05-03T00:07:15;96057.81;;;9.09;99.54
69171;BME280;56279;47.902;12.308;2023-05-03T00:09:18;96062.06;;;9.10;99.63
69171;BME280;56279;47.902;12.308;2023-05-03T00:11:20;96063.69;;;9.16;99.92
69171;BME280;56279;47.902;12.308;2023-05-03T00:13:21;96056.34;;;9.18;99.28
69171;BME280;56279;47.902;12.308;2023-05-03T00:15:22;96058.47;;;9.21;99.44
69171;BME280;56279;47.902;12.308;2023-05-03T00:17:24;96051.13;;;9.23;99.43
69171;BME280;56279;47.902;12.308;2023-05-03T00:19:25;96049.81;;;9.26;99.17
69171;BME280;56279;47.902;12.308;2023-05-03T00:21:27;96055.38;;;9.29;99.58
69171;BME280;56279;47.902;12.308;2023-05-03T00:23:28;96056.72;;;9.32;99.01
69171;BME280;56279;47.902;12.308;2023-05-03T00:25:30;96051.75;;;9.35;98.91
69171;BME280;56279;47.902;12.308;2023-05-03T00:27:31;96053.09;;;9.38;98.74
69171;BME280;56279;47.902;12.308;2023-05-03T00:29:32;96048.38;;;9.40;99.23
69171;BME280;56279;47.902;12.308;2023-05-03T00:31:34;96045.47;;;9.41;98.94
69171;BME280;56279;47.902;12.308;2023-05-03T00:33:36;96042.34;;;9.44;99.14
69171;BME280;56279;47.902;12.308;2023-05-03T00:35:38;96042.88;;;9.46;98.89
69171;BME280;56279;47.902;12.308;2023-05-03T00:37:39;96043.69;;;9.47;98.95
69171;BME280;56279;47.902;12.308;2023-05-03T00:39:41;96044.22;;;9.49;99.19
69171;BME280;56279;47.902;12.308;2023-05-03T00:41:42;96043.16;;;9.50;99.18
69171;BME280;56279;47.902;12.308;2023-05-03T00:43:43;96037.88;;;9.50;98.76
69171;BME280;56279;47.902;12.308;2023-05-03T00:45:45;96038.94;;;9.49;99.04
69171;BME280;56279;47.902;12.308;2023-05-03T00:47:47;96039.75;;;9.49;98.93
69171;BME280;56279;47.902;12.308;2023-05-03T00:49:49;96038.94;;;9.49;98.75
69171;BME280;56279;47.902;12.308;2023-05-03T00:51:52;96045.25;;;9.48;99.09
69171;BME280;56279;47.902;12.308;2023-05-03T00:53:53;96039.22;;;9.47;99.04
69171;BME280;56279;47.902;12.308;2023-05-03T00:55:55;96034.97;;;9.46;99.10
69171;BME280;56279;47.902;12.308;2023-05-03T00:57:56;96025.25;;;9.47;98.91
69171;BME280;56279;47.902;12.308;2023-05-03T00:59:58;96031.53;;;9.46;99.14
69171;BME280;56279;47.902;12.308;2023-05-03T01:01:59;96031.81;;;9.44;99.02
69171;BME280;56279;47.902;12.308;2023-05-03T01:04:04;96037.31;;;9.43;99.06
69171;BME280;56279;47.902;12.308;2023-05-03T01:06:14;96038.38;;;9.42;98.86
69171;BME280;56279;47.902;12.308;2023-05-03T01:08:33;96035.19;;;9.40;98.97
69171;BME280;56279;47.902;12.308;2023-05-03T01:11:12;96043.91;;;9.40;99.02
69171;BME280;56279;47.902;12.308;2023-05-03T01:13:52;96042.03;;;9.41;98.82
69171;BME280;56279;47.902;12.308;2023-05-03T01:16:00;96038.38;;;9.42;98.72
69171;BME280;56279;47.902;12.308;2023-05-03T01:18:16;96042.31;;;9.39;98.71
69171;BME280;56279;47.902;12.308;2023-05-03T01:20:22;96036.00;;;9.40;98.68
69171;BME280;56279;47.902;12.308;2023-05-03T01:22:32;96039.41;;;9.41;99.05
69171;BME280;56279;47.902;12.308;2023-05-03T01:24:40;96040.75;;;9.43;98.82
69171;BME280;56279;47.902;12.308;2023-05-03T01:26:42;96035.25;;;9.45;99.01
69171;BME280;56279;47.902;12.308;2023-05-03T01:28:44;96036.00;;;9.45;98.69
69171;BME280;56279;47.902;12.308;2023-05-03T01:30:47;96034.97;;;9.46;98.68
69171;BME280;56279;47.902;12.308;2023-05-03T01:33:12;96036.59;;;9.47;98.64
69171;BME280;56279;47.902;12.308;2023-05-03T01:35:34;96044.22;;;9.49;98.62
69171;BME280;56279;47.902;12.308;2023-05-03T01:37:37;96041.63;;;9.54;98.72
69171;BME280;56279;47.902;12.308;2023-05-03T01:39:45;96035.28;;;9.55;98.63
69171;BME280;56279;47.902;12.308;2023-05-03T01:41:52;96042.72;;;9.58;98.54
69171;BME280;56279;47.902;12.308;2023-05-03T01:43:54;96038.78;;;9.60;98.49
69171;BME280;56279;47.902;12.308;2023-05-03T01:45:57;96029.03;;;9.61;98.75
69171;BME280;56279;47.902;12.308;2023-05-03T01:47:58;96038.28;;;9.63;98.52
69171;BME280;56279;47.902;12.308;2023-05-03T01:50:00;96041.19;;;9.67;98.40
69171;BME280;56279;47.902;12.308;2023-05-03T01:52:01;96032.25;;;9.68;98.33
69171;BME280;56279;47.902;12.308;2023-05-03T01:54:03;96038.84;;;9.70;98.21
69171;BME280;56279;47.902;12.308;2023-05-03T01:56:04;96036.75;;;9.72;98.24
69171;BME280;56279;47.902;12.308;2023-05-03T01:58:07;96043.59;;;9.73;98.34
69171;BME280;56279;47.902;12.308;2023-05-03T02:00:09;96039.41;;;9.72;98.40
69171;BME280;56279;47.902;12.308;2023-05-03T02:02:13;96042.84;;;9.73;98.12
69171;BME280;56279;47.902;12.308;2023-05-03T02:04:15;96041.75;;;9.74;98.35
69171;BME280;56279;47.902;12.308;2023-05-03T02:06:16;96046.25;;;9.73;98.33
69171;BME280;56279;47.902;12.308;2023-05-03T02:08:18;96049.13;;;9.72;98.32
69171;BME280;56279;47.902;12.308;2023-05-03T02:10:19;96055.44;;;9.71;98.58
69171;BME280;56279;47.902;12.308;2023-05-03T02:12:21;96049.91;;;9.67;98.57
69171;BME280;56279;47.902;12.308;2023-05-03T02:14:22;96043.56;;;9.68;98.55
69171;BME280;56279;47.902;12.308;2023-05-03T02:16:24;96046.72;;;9.65;98.60
69171;BME280;56279;47.902;12.308;2023-05-03T02:18:26;96048.03;;;9.63;98.61
69171;BME280;56279;47.902;12.308;2023-05-03T02:20:31;96039.81;;;9.59;98.52
69171;BME280;56279;47.902;12.308;2023-05-03T02:22:36;96052.44;;;9.57;98.64
69171;BME280;56279;47.902;12.308;2023-05-03T02:24:37;96053.75;;;9.55;98.90
69171;BME280;56279;47.902;12.308;2023-05-03T02:26:40;96052.66;;;9.51;98.65
69171;BME280;56279;47.902;12.308;2023-05-03T02:28:41;96057.66;;;9.47;98.87
69171;BME280;56279;47.902;12.308;2023-05-03T02:30:42;96051.03;;;9.45;98.74
69171;BME280;56279;47.902;12.308;2023-05-03T02:32:44;96054.97;;;9.42;99.03
69171;BME280;56279;47.902;12.308;2023-05-03T02:34:47;96058.09;;;9.39;99.20
69171;BME280;56279;47.902;12.308;2023-05-03T02:36:52;96051.50;;;9.37;98.89
69171;BME280;56279;47.902;12.308;2023-05-03T02:38:55;96050.69;;;9.36;99.06
69171;BME280;56279;47.902;12.308;2023-05-03T02:40:56;96052.78;;;9.34;99.12
69171;BME280;56279;47.902;12.308;2023-05-03T02:42:58;96047.78;;;9.33;98.95
69171;BME280;56279;47.902;12.308;2023-05-03T02:45:03;96036.44;;;9.32;99.08
69171;BME280;56279;47.902;12.308;2023-05-03T02:47:04;96041.72;;;9.32;99.27
69171;BME280;56279;47.902;12.308;2023-05-03T02:49:07;96041.44;;;9.34;99.38
69171;BME280;56279;47.902;12.308;2023-05-03T02:51:08;96040.97;;;9.37;99.19
69171;BME280;56279;47.902;12.308;2023-05-03T02:53:10;96041.75;;;9.37;99.13
69171;BME280;56279;47.902;12.308;2023-05-03T02:55:11;96038.88;;;9.39;98.99
69171;BME280;56279;47.902;12.308;2023-05-03T02:57:14;96038.88;;;9.39;99.08
69171;BME280;56279;47.902;12.308;2023-05-03T02:59:16;96041.25;;;9.40;98.94
69171;BME280;56279;47.902;12.308;2023-05-03T03:01:18;96042.84;;;9.41;99.11
69171;BME280;56279;47.902;12.308;2023-05-03T03:03:19;96048.66;;;9.43;99.04
69171;BME280;56279;47.902;12.308;2023-05-03T03:05:21;96043.91;;;9.45;99.17
69171;BME280;56279;47.902;12.308;2023-05-03T03:07:26;96039.22;;;9.47;99.11
69171;BME280;56279;47.902;12.308;2023-05-03T03:09:30;96043.97;;;9.50;98.88
69171;BME280;56279;47.902;12.308;2023-05-03T03:11:35;96047.94;;;9.53;98.82
69171;BME280;56279;47.902;12.308;2023-05-03T03:13:36;96044.25;;;9.54;98.83
69171;BME280;56279;47.902;12.308;2023-05-03T03:15:40;96037.94;;;9.55;98.88
69171;BME280;56279;47.902;12.308;2023-05-03T03:17:41;96035.06;;;9.56;98.89
69171;BME280;56279;47.902;12.308;2023-05-03T03:19:45;96045.59;;;9.56;98.61
69171;BME280;56279;47.902;12.308;2023-05-03T03:21:47;96032.97;;;9.58;98.92
69171;BME280;56279;47.902;12.308;2023-05-03T03:23:48;96039.81;;;9.59;98.74
69171;BME280;56279;47.902;12.308;2023-05-03T03:25:49;96040.59;;;9.60;98.86
69171;BME280;56279;47.902;12.308;2023-05-03T03:27:52;96044.31;;;9.59;98.84
69171;BME280;56279;47.902;12.308;2023-05-03T03:29:53;96040.88;;;9.58;98.63
69171;BME280;56279;47.902;12.308;2023-05-03T03:31:54;96049.81;;;9.57;98.63
69171;BME280;56279;47.902;12.308;2023-05-03T03:33:55;96041.91;;;9.57;98.81
69171;BME280;56279;47.902;12.308;2023-05-03T03:35:59;96041.91;;;9.57;98.73
69171;BME280;56279;47.902;12.308;2023-05-03T03:38:05;96045.59;;;9.56;99.00
69171;BME280;56279;47.902;12.308;2023-05-03T03:40:10;96045.59;;;9.56;98.83
69171;BME280;56279;47.902;12.308;2023-05-03T03:42:14;96040.34;;;9.56;98.64
69171;BME280;56279;47.902;12.308;2023-05-03T03:44:16;96047.69;;;9.54;98.91
69171;BME280;56279;47.902;12.308;2023-05-03T03:46:18;96044.25;;;9.54;98.90
69171;BME280;56279;47.902;12.308;2023-05-03T03:48:23;96051.38;;;9.53;98.53
69171;BME280;56279;47.902;12.308;2023-05-03T03:50:25;96042.66;;;9.53;98.73
69171;BME280;56279;47.902;12.308;2023-05-03T03:52:27;96046.09;;;9.53;98.90
69171;BME280;56279;47.902;12.308;2023-05-03T03:54:29;96054.81;;;9.54;99.01
69171;BME280;56279;47.902;12.308;2023-05-03T03:56:30;96046.91;;;9.54;98.74
69171;BME280;56279;47.902;12.308;2023-05-03T03:58:32;96056.63;;;9.53;98.83
69171;BME280;56279;47.902;12.308;2023-05-03T04:00:34;96054.81;;;9.54;98.75
69171;BME280;56279;47.902;12.308;2023-05-03T04:02:44;96052.97;;;9.54;98.91
69171;BME280;56279;47.902;12.308;2023-05-03T04:04:51;96065.63;;;9.57;98.80
69171;BME280;56279;47.902;12.308;2023-05-03T04:06:53;96062.50;;;9.60;98.64
69171;BME280;56279;47.902;12.308;2023-05-03T04:08:57;96072.53;;;9.63;98.45
69171;BME280;56279;47.902;12.308;2023-05-03T04:11:01;96069.63;;;9.65;98.26
69171;BME280;56279;47.902;12.308;2023-05-03T04:13:03;96071.78;;;9.68;98.29
69171;BME280;56279;47.902;12.308;2023-05-03T04:15:05;96076.00;;;9.69;98.02
69171;BME280;56279;47.902;12.308;2023-05-03T04:17:09;96081.25;;;9.69;97.97
69171;BME280;56279;47.902;12.308;2023-05-03T04:19:10;96079.44;;;9.69;98.10
69171;BME280;56279;47.902;12.308;2023-05-03T04:21:14;96077.59;;;9.70;98.10
69171;BME280;56279;47.902;12.308;2023-05-03T04:23:17;96077.31;;;9.71;98.09
69171;BME280;56279;47.902;12.308;2023-05-03T04:25:18;96072.84;;;9.72;97.98
69171;BME280;56279;47.902;12.308;2023-05-03T04:27:27;96077.09;;;9.73;97.75
69171;BME280;56279;47.902;12.308;2023-05-03T04:29:28;96080.28;;;9.75;97.82
69171;BME280;56279;47.902;12.308;2023-05-03T04:31:30;96072.09;;;9.77;97.91
69171;BME280;56279;47.902;12.308;2023-05-03T04:33:32;96071.84;;;9.78;98.10
69171;BME280;56279;47.902;12.308;2023-05-03T04:35:37;96079.25;;;9.81;97.95
69171;BME280;56279;47.902;12.308;2023-05-03T04:37:43;96078.50;;;9.86;98.05
69171;BME280;56279;47.902;12.308;2023-05-03T04:39:48;96074.56;;;9.88;97.75
69171;BME280;56279;47.902;12.308;2023-05-03T04:41:49;96077.50;;;9.92;97.70
69171;BME280;56279;47.902;12.308;2023-05-03T04:43:51;96073.78;;;9.93;97.82
69171;BME280;56279;47.902;12.308;2023-05-03T04:45:53;96072.75;;;9.94;97.79
69171;BME280;56279;47.902;12.308;2023-05-03T04:47:57;96078.78;;;9.94;97.70
69171;BME280;56279;47.902;12.308;2023-05-03T04:49:59;96079.59;;;9.95;97.48
69171;BME280;56279;47.902;12.308;2023-05-03T04:52:02;96076.47;;;9.98;97.46
69171;BME280;56279;47.902;12.308;2023-05-03T04:54:04;96078.06;;;9.99;97.65
69171;BME280;56279;47.902;12.308;2023-05-03T04:56:05;96078.06;;;10.04;97.66
69171;BME280;56279;47.902;12.308;2023-05-03T04:58:10;96071.25;;;10.08;97.60
69171;BME280;56279;47.902;12.308;2023-05-03T05:00:13;96073.16;;;10.12;97.46
69171;BME280;56279;47.902;12.308;2023-05-03T05:02:19;96066.31;;;10.16;97.15
69171;BME280;56279;47.902;12.308;2023-05-03T05:04:22;96071.88;;;10.20;97.43
69171;BME280;56279;47.902;12.308;2023-05-03T05:06:24;96081.16;;;10.27;97.24
69171;BME280;56279;47.902;12.308;2023-05-03T05:08:26;96078.28;;;10.34;96.78
69171;BME280;56279;47.902;12.308;2023-05-03T05:10:30;96076.97;;;10.36;96.75
69171;BME280;56279;47.902;12.308;2023-05-03T05:12:32;96078.56;;;10.37;96.75
69171;BME280;56279;47.902;12.308;2023-05-03T05:14:37;96081.47;;;10.41;96.82
69171;BME280;56279;47.902;12.308;2023-05-03T05:16:38;96077.53;;;10.43;96.57
69171;BME280;56279;47.902;12.308;2023-05-03T05:18:40;96071.75;;;10.47;96.60
69171;BME280;56279;47.902;12.308;2023-05-03T05:20:44;96081.53;;;10.51;96.52
69171;BME280;56279;47.902;12.308;2023-05-03T05:22:46;96074.69;;;10.55;96.35
69171;BME280;56279;47.902;12.308;2023-05-03T05:25:08;96074.19;;;10.58;96.21
69171;BME280;56279;47.902;12.308;2023-05-03T05:27:10;96082.91;;;10.64;96.18
69171;BME280;56279;47.902;12.308;2023-05-03T05:29:12;96086.91;;;10.66;95.86
69171;BME280;56279;47.902;12.308;2023-05-03T05:31:13;96083.19;;;10.67;95.91
69171;BME280;56279;47.902;12.308;2023-05-03T05:33:16;96087.44;;;10.68;95.66
69171;BME280;56279;47.902;12.308;2023-05-03T05:35:17;96089.00;;;10.69;95.71
69171;BME280;56279;47.902;12.308;2023-05-03T05:37:20;96096.41;;;10.72;95.67
69171;BME280;56279;47.902;12.308;2023-05-03T05:39:22;96095.38;;;10.73;95.45
69171;BME280;56279;47.902;12.308;2023-05-03T05:41:24;96090.84;;;10.74;95.31
69171;BME280;56279;47.902;12.308;2023-05-03T05:43:26;96089.81;;;10.75;95.25
69171;BME280;56279;47.902;12.308;2023-05-03T05:45:28;96087.44;;;10.73;95.25
69171;BME280;56279;47.902;12.308;2023-05-03T05:47:31;96096.41;;;10.72;95.29
69171;BME280;56279;47.902;12.308;2023-05-03T05:49:33;96103.53;;;10.72;95.31
69171;BME280;56279;47.902;12.308;2023-05-03T05:51:35;96105.13;;;10.73;95.42
69171;BME280;56279;47.902;12.308;2023-05-03T05:53:36;96105.13;;;10.73;95.33
69171;BME280;56279;47.902;12.308;2023-05-03T05:55:38;96108.28;;;10.70;95.08
69171;BME280;56279;47.902;12.308;2023-05-03T05:57:39;96104.31;;;10.67;95.15
69171;BME280;56279;47.902;12.308;2023-05-03T05:59:42;96108.78;;;10.67;95.29
69171;BME280;56279;47.902;12.308;2023-05-03T06:01:43;96113.28;;;10.71;95.39
69171;BME280;56279;47.902;12.308;2023-05-03T06:03:48;96109.91;;;10.76;95.02
69171;BME280;56279;47.902;12.308;2023-05-03T06:05:50;96109.91;;;10.81;94.94
69171;BME280;56279;47.902;12.308;2023-05-03T06:07:51;96109.13;;;10.85;94.46
69171;BME280;56279;47.902;12.308;2023-05-03T06:09:52;96113.63;;;10.90;94.74
69171;BME280;56279;47.902;12.308;2023-05-03T06:11:54;96116.06;;;10.96;94.44
69171;BME280;56279;47.902;12.308;2023-05-03T06:13:56;96126.34;;;10.98;94.35
69171;BME280;56279;47.902;12.308;2023-05-03T06:15:57;96118.94;;;11.00;93.99
69171;BME280;56279;47.902;12.308;2023-05-03T06:17:59;96117.91;;;11.01;94.15
69171;BME280;56279;47.902;12.308;2023-05-03T06:20:00;96120.28;;;11.02;94.35
69171;BME280;56279;47.902;12.308;2023-05-03T06:22:03;96125.59;;;11.07;94.05
69171;BME280;56279;47.902;12.308;2023-05-03T06:24:07;96116.34;;;11.10;93.82
69171;BME280;56279;47.902;12.308;2023-05-03T06:26:09;96122.97;;;11.13;93.67
69171;BME280;56279;47.902;12.308;2023-05-03T06:28:10;96129.31;;;11.17;93.60
69171;BME280;56279;47.902;12.308;2023-05-03T06:30:12;96125.09;;;11.21;93.59
69171;BME280;56279;47.902;12.308;2023-05-03T06:32:15;96126.69;;;11.27;93.68
69171;BME280;56279;47.902;12.308;2023-05-03T06:34:19;96123.53;;;11.35;93.21
69171;BME280;56279;47.902;12.308;2023-05-03T06:36:23;96123.84;;;11.43;93.38
69171;BME280;56279;47.902;12.308;2023-05-03T06:38:25;96122.25;;;11.52;93.13
69171;BME280;56279;47.902;12.308;2023-05-03T06:40:26;96118.56;;;11.58;92.55
69171;BME280;56279;47.902;12.308;2023-05-03T06:42:27;96117.25;;;11.66;92.23
69171;BME280;56279;47.902;12.308;2023-05-03T06:44:41;96119.38;;;11.74;91.96
69171;BME280;56279;47.902;12.308;2023-05-03T06:46:43;96122.31;;;11.83;91.66
69171;BME280;56279;47.902;12.308;2023-05-03T06:48:44;96115.69;;;11.90;91.43
69171;BME280;56279;47.902;12.308;2023-05-03T06:50:45;96118.31;;;12.00;91.01
69171;BME280;56279;47.902;12.308;2023-05-03T06:52:47;96117.81;;;12.13;90.86
69171;BME280;56279;47.902;12.308;2023-05-03T06:54:48;96122.00;;;12.19;90.60
69171;BME280;56279;47.902;12.308;2023-05-03T06:56:49;96122.81;;;12.20;90.19
69171;BME280;56279;47.902;12.308;2023-05-03T06:58:52;96121.22;;;12.19;90.54
69171;BME280;56279;47.902;12.308;2023-05-03T07:00:54;96120.94;;;12.25;90.28
69171;BME280;56279;47.902;12.308;2023-05-03T07:02:55;96123.56;;;12.35;90.06
69171;BME280;56279;47.902;12.308;2023-05-03T07:04:56;96123.56;;;12.40;89.53
69171;BME280;56279;47.902;12.308;2023-05-03T07:06:57;96124.09;;;12.42;89.16
69171;BME280;56279;47.902;12.308;2023-05-03T07:08:59;96122.25;;;12.43;89.14
69171;BME280;56279;47.902;12.308;2023-05-03T07:11:00;96122.25;;;12.43;89.32
69171;BME280;56279;47.902;12.308;2023-05-03T07:13:01;96118.28;;;12.40;89.48
69171;BME280;56279;47.902;12.308;2023-05-03T07:15:03;96121.97;;;12.44;89.54
69171;BME280;56279;47.902;12.308;2023-05-03T07:17:04;96119.03;;;12.51;89.22
69171;BME280;56279;47.902;12.308;2023-05-03T07:19:08;96124.84;;;12.58;89.53
69171;BME280;56279;47.902;12.308;2023-05-03T07:21:09;96122.19;;;12.63;89.02
69171;BME280;56279;47.902;12.308;2023-05-03T07:23:10;96116.88;;;12.63;88.41
69171;BME280;56279;47.902;12.308;2023-05-03T07:25:13;96119.81;;;12.62;88.27
69171;BME280;56279;47.902;12.308;2023-05-03T07:27:17;96122.47;;;12.62;88.33
69171;BME280;56279;47.902;12.308;2023-05-03T07:29:18;96117.16;;;12.62;88.17
69171;BME280;56279;47.902;12.308;2023-05-03T07:31:21;96114.50;;;12.62;88.04
69171;BME280;56279;47.902;12.308;2023-05-03T07:33:23;96118.19;;;12.66;87.71
69171;BME280;56279;47.902;12.308;2023-05-03T07:35:24;96120.03;;;12.70;87.31
69171;BME280;56279;47.902;12.308;2023-05-03T07:37:27;96118.44;;;12.74;87.27
69171;BME280;56279;47.902;12.308;2023-05-03T07:39:28;96117.38;;;12.75;86.81
69171;BME280;56279;47.902;12.308;2023-05-03T07:41:30;96122.44;;;12.72;86.96
69171;BME280;56279;47.902;12.308;2023-05-03T07:43:31;96108.63;;;12.75;86.69
69171;BME280;56279;47.902;12.308;2023-05-03T07:45:32;96117.09;;;12.82;86.69
69171;BME280;56279;47.902;12.308;2023-05-03T07:47:34;96117.06;;;12.92;86.39
69171;BME280;56279;47.902;12.308;2023-05-03T07:49:38;96123.09;;;13.02;86.00
69171;BME280;56279;47.902;12.308;2023-05-03T07:51:39;96123.38;;;13.11;85.88
69171;BME280;56279;47.902;12.308;2023-05-03T07:53:41;96113.78;;;13.15;85.49
69171;BME280;56279;47.902;12.308;2023-05-03T07:55:42;96116.94;;;13.22;85.38
69171;BME280;56279;47.902;12.308;2023-05-03T07:57:44;96121.09;;;13.33;85.48
69171;BME280;56279;47.902;12.308;2023-05-03T07:59:45;96119.72;;;13.46;85.00
69171;BME280;56279;47.902;12.308;2023-05-03T08:01:46;96117.78;;;13.56;84.71
69171;BME280;56279;47.902;12.308;2023-05-03T08:03:47;96120.09;;;13.68;84.12
69171;BME280;56279;47.902;12.308;2023-05-03T08:05:51;96117.63;;;13.81;83.60
69171;BME280;56279;47.902;12.308;2023-05-03T08:07:52;96121.66;;;14.03;82.93
69171;BME280;56279;47.902;12.308;2023-05-03T08:09:54;96115.91;;;14.24;82.20
69171;BME280;56279;47.902;12.308;2023-05-03T08:11:56;96117.56;;;14.49;81.28
69171;BME280;56279;47.902;12.308;2023-05-03T08:13:58;96116.78;;;14.72;80.04
69171;BME280;56279;47.902;12.308;2023-05-03T08:15:59;96121.47;;;14.80;78.74
69171;BME280;56279;47.902;12.308;2023-05-03T08:18:01;96115.75;;;14.92;78.35
69171;BME280;56279;47.902;12.308;2023-05-03T08:20:02;96122.00;;;15.01;77.57
69171;BME280;56279;47.902;12.308;2023-05-03T08:22:07;96116.69;;;15.01;77.11
69171;BME280;56279;47.902;12.308;2023-05-03T08:24:11;96117.91;;;14.90;76.90
69171;BME280;56279;47.902;12.308;2023-05-03T08:26:13;96124.47;;;14.74;77.17
69171;BME280;56279;47.902;12.308;2023-05-03T08:28:15;96119.25;;;14.64;77.68
69171;BME280;56279;47.902;12.308;2023-05-03T08:30:17;96116.44;;;14.79;77.39
69171;BME280;56279;47.902;12.308;2023-05-03T08:32:18;96122.31;;;14.99;77.04
69171;BME280;56279;47.902;12.308;2023-05-03T08:34:21;96112.84;;;15.12;76.76
69171;BME280;56279;47.902;12.308;2023-05-03T08:36:22;96109.09;;;15.13;76.49
69171;BME280;56279;47.902;12.308;2023-05-03T08:38:24;96112.56;;;15.13;76.40
69171;BME280;56279;47.902;12.308;2023-05-03T08:40:26;96112.84;;;15.12;76.78
69171;BME280;56279;47.902;12.308;2023-05-03T08:42:27;96114.38;;;15.18;76.34
69171;BME280;56279;47.902;12.308;2023-05-03T08:44:35;96113.00;;;15.20;75.94
69171;BME280;56279;47.902;12.308;2023-05-03T08:46:37;96115.66;;;15.20;75.83
69171;BME280;56279;47.902;12.308;2023-05-03T08:48:38;96105.81;;;15.21;75.43
69171;BME280;56279;47.902;12.308;2023-05-03T08:50:40;96106.25;;;15.28;75.40
69171;BME280;56279;47.902;12.308;2023-05-03T08:52:44;96104.81;;;15.36;75.38
69171;BME280;56279;47.902;12.308;2023-05-03T08:54:46;96108.47;;;15.45;75.52
69171;BME280;56279;47.902;12.308;2023-05-03T08:56:49;96106.22;;;15.52;75.04
69171;BME280;56279;47.902;12.308;2023-05-03T08:58:51;96107.66;;;15.63;74.49
69171;BME280;56279;47.902;12.308;2023-05-03T09:00:53;96102.09;;;15.78;73.71
69171;BME280;56279;47.902;12.308;2023-05-03T09:02:55;96103.16;;;15.96;74.53
69171;BME280;56279;47.902;12.308;2023-05-03T09:04:57;96101.31;;;16.10;74.46
69171;BME280;56279;47.902;12.308;2023-05-03T09:07:16;96108.03;;;16.21;73.40
69171;BME280;56279;47.902;12.308;2023-05-03T09:09:30;96102.38;;;16.09;72.97
69171;BME280;56279;47.902;12.308;2023-05-03T09:11:33;96112.22;;;15.95;72.82
69171;BME280;56279;47.902;12.308;2023-05-03T09:13:34;96113.16;;;15.85;72.79
69171;BME280;56279;47.902;12.308;2023-05-03T09:15:36;96105.97;;;15.85;72.78
69171;BME280;56279;47.902;12.308;2023-05-03T09:17:38;96103.00;;;15.87;73.21
69171;BME280;56279;47.902;12.308;2023-05-03T09:19:55;96107.06;;;15.84;72.56
69171;BME280;56279;47.902;12.308;2023-05-03T09:22:05;96110.00;;;15.83;72.95
69171;BME280;56279;47.902;12.308;2023-05-03T09:24:17;96107.63;;;15.81;72.70
69171;BME280;56279;47.902;12.308;2023-05-03T09:26:32;96095.63;;;15.84;72.47
69171;BME280;56279;47.902;12.308;2023-05-03T09:28:40;96098.47;;;15.87;71.61
69171;BME280;56279;47.902;12.308;2023-05-03T09:30:43;96088.78;;;15.78;71.46
69171;BME280;56279;47.902;12.308;2023-05-03T09:32:47;96101.66;;;15.71;71.52
69171;BME280;56279;47.902;12.308;2023-05-03T09:34:49;96104.13;;;15.67;71.90
69171;BME280;56279;47.902;12.308;2023-05-03T09:36:50;96100.16;;;15.65;71.64
69171;BME280;56279;47.902;12.308;2023-05-03T09:38:52;96102.41;;;15.58;72.14
69171;BME280;56279;47.902;12.308;2023-05-03T09:40:54;96099.00;;;15.52;72.12
69171;BME280;56279;47.902;12.308;2023-05-03T09:43:09;96099.63;;;15.49;72.73
69171;BME280;56279;47.902;12.308;2023-05-03T09:45:22;96098.94;;;15.57;72.37
69171;BME280;56279;47.902;12.308;2023-05-03T09:47:23;96094.41;;;15.58;72.77
69171;BME280;56279;47.902;12.308;2023-05-03T09:49:25;96101.34;;;15.59;72.63
69171;BME280;56279;47.902;12.308;2023-05-03T09:51:26;96097.94;;;15.53;72.74
69171;BME280;56279;47.902;12.308;2023-05-03T09:53:31;96097.44;;;15.51;72.69
69171;BME280;56279;47.902;12.308;2023-05-03T09:55:34;96098.25;;;15.52;72.79
69171;BME280;56279;47.902;12.308;2023-05-03T09:57:35;96090.25;;;15.52;72.52
69171;BME280;56279;47.902;12.308;2023-05-03T09:59:37;96093.19;;;15.50;72.52
69171;BME280;56279;47.902;12.308;2023-05-03T10:01:39;96089.25;;;15.48;72.47
69171;BME280;56279;47.902;12.308;2023-05-03T10:03:45;96085.06;;;15.42;72.83
69171;BME280;56279;47.902;12.308;2023-05-03T10:05:50;96085.06;;;15.42;73.09
69171;BME280;56279;47.902;12.308;2023-05-03T10:07:53;96083.84;;;15.53;72.63
69171;BME280;56279;47.902;12.308;2023-05-03T10:09:57;96077.88;;;15.61;72.38
69171;BME280;56279;47.902;12.308;2023-05-03T10:11:59;96076.25;;;15.78;71.95
69171;BME280;56279;47.902;12.308;2023-05-03T10:14:04;96076.94;;;16.03;71.29
69171;BME280;56279;47.902;12.308;2023-05-03T10:16:12;96074.31;;;16.16;69.75
69171;BME280;56279;47.902;12.308;2023-05-03T10:18:19;96074.53;;;16.33;69.30
69171;BME280;56279;47.902;12.308;2023-05-03T10:20:34;96070.38;;;16.41;68.02
69171;BME280;56279;47.902;12.308;2023-05-03T10:27:06;96068.31;;;16.38;68.84
69171;BME280;56279;47.902;12.308;2023-05-03T10:31:43;96059.22;;;16.39;68.75
69171;BME280;56279;47.902;12.308;2023-05-03T10:33:45;96058.81;;;16.18;68.24
69171;BME280;56279;47.902;12.308;2023-05-03T10:35:51;96063.94;;;16.15;69.27
69171;BME280;56279;47.902;12.308;2023-05-03T10:37:54;96055.38;;;16.31;68.12
69171;BME280;56279;47.902;12.308;2023-05-03T10:40:05;96055.41;;;16.45;68.23
69171;BME280;56279;47.902;12.308;2023-05-03T10:42:07;96054.72;;;16.67;67.28
69171;BME280;56279;47.902;12.308;2023-05-03T10:44:25;96058.88;;;16.73;66.24
69171;BME280;56279;47.902;12.308;2023-05-03T10:46:31;96052.84;;;16.81;65.34
69171;BME280;56279;47.902;12.308;2023-05-03T10:48:34;96040.28;;;16.95;65.76
69171;BME280;56279;47.902;12.308;2023-05-03T10:50:35;96045.97;;;17.15;63.31
69171;BME280;56279;47.902;12.308;2023-05-03T10:54:38;96051.63;;;17.50;63.43
69171;BME280;56279;47.902;12.308;2023-05-03T10:56:50;96049.06;;;17.80;63.79
69171;BME280;56279;47.902;12.308;2023-05-03T10:58:51;96044.91;;;17.97;61.44